createdAt,value
2019-05-21T00:00:21.164Z,1000.11
2019-05-21T00:01:21.147Z,1000.11
2019-05-21T00:02:21.143Z,1000.08
2019-05-21T00:03:21.139Z,1000.09
2019-05-21T00:04:28.310Z,1000.12
2019-05-21T00:05:21.130Z,1000.10
2019-05-21T00:06:21.119Z,1000.13
2019-05-21T00:07:21.116Z,1000.16
2019-05-21T00:08:21.105Z,1000.06
2019-05-21T00:09:21.104Z,1000.13
2019-05-21T00:10:21.102Z,1000.11
2019-05-21T00:11:21.093Z,1000.09
2019-05-21T00:12:21.082Z,1000.11
2019-05-21T00:13:21.079Z,1000.07
2019-05-21T00:14:21.073Z,1000.05
2019-05-21T00:15:21.068Z,1000.03
2019-05-21T00:16:21.054Z,1000.07
2019-05-21T00:17:21.053Z,1000.13
2019-05-21T00:18:21.051Z,1000.13
2019-05-21T00:19:21.045Z,1000.09
2019-05-21T00:20:21.033Z,1000.12
2019-05-21T00:21:21.030Z,1000.09
2019-05-21T00:22:21.022Z,1000.04
2019-05-21T00:23:21.013Z,1000.12
2019-05-21T00:24:21.011Z,1000.00
2019-05-21T00:25:21.003Z,1000.08
2019-05-21T00:26:20.997Z,1000.13
2019-05-21T00:27:20.989Z,1000.16
2019-05-21T00:28:20.986Z,1000.19
2019-05-21T00:29:20.978Z,1000.21
2019-05-21T00:30:20.975Z,1000.22
2019-05-21T00:31:20.966Z,1000.25
2019-05-21T00:32:20.957Z,1000.17
2019-05-21T00:33:20.950Z,1000.21
2019-05-21T00:34:20.946Z,1000.16
2019-05-21T00:35:20.943Z,1000.10
2019-05-21T00:36:20.946Z,1000.13
2019-05-21T00:37:20.925Z,1000.13
2019-05-21T00:38:20.921Z,1000.11
2019-05-21T00:39:20.918Z,1000.15
2019-05-21T00:40:20.913Z,1000.20
2019-05-21T00:41:20.901Z,1000.24
2019-05-21T00:42:20.899Z,1000.29
2019-05-21T00:43:20.893Z,1000.26
2019-05-21T00:44:20.884Z,1000.19
2019-05-21T00:45:20.886Z,1000.18
2019-05-21T00:46:20.881Z,1000.24
2019-05-21T00:47:20.865Z,1000.24
2019-05-21T00:48:20.864Z,1000.24
2019-05-21T00:49:20.858Z,1000.25
2019-05-21T00:50:20.848Z,1000.24
2019-05-21T00:51:20.866Z,1000.24
2019-05-21T00:52:20.837Z,1000.20
2019-05-21T00:53:20.827Z,1000.17
2019-05-21T00:54:20.826Z,1000.13
2019-05-21T00:55:20.816Z,1000.19
2019-05-21T00:56:20.809Z,1000.18
2019-05-21T00:57:20.813Z,1000.09
2019-05-21T00:58:20.795Z,1000.16
2019-05-21T00:59:20.790Z,1000.17
2019-05-21T01:00:20.786Z,1000.07
2019-05-21T01:01:20.778Z,1000.12
2019-05-21T01:02:20.774Z,1000.09
2019-05-21T01:03:20.767Z,1000.15
2019-05-21T01:04:20.762Z,1000.08
2019-05-21T01:05:20.750Z,1000.06
2019-05-21T01:06:20.748Z,1000.09
2019-05-21T01:07:20.748Z,1000.12
2019-05-21T01:08:20.735Z,1000.09
2019-05-21T01:09:20.728Z,1000.07
2019-05-21T01:10:20.739Z,1000.07
2019-05-21T01:11:20.727Z,1000.11
2019-05-21T01:12:20.711Z,1000.10
2019-05-21T01:13:20.721Z,1000.14
2019-05-21T01:14:20.697Z,1000.09
2019-05-21T01:15:20.747Z,1000.08
2019-05-21T01:16:20.687Z,1000.07
2019-05-21T01:17:20.678Z,1000.02
2019-05-21T01:18:20.674Z,1000.07
2019-05-21T01:19:20.663Z,1000.02
2019-05-21T01:20:20.659Z,1000.04
2019-05-21T01:21:20.658Z,999.99
2019-05-21T01:22:20.651Z,1000.06
2019-05-21T01:23:20.646Z,1000.04
2019-05-21T01:24:20.648Z,1000.02
2019-05-21T01:25:20.628Z,1000.03
2019-05-21T01:26:20.617Z,1000.11
2019-05-21T01:27:20.611Z,1000.03
2019-05-21T01:28:20.607Z,1000.08
2019-05-21T01:29:20.600Z,1000.07
2019-05-21T01:30:20.596Z,1000.03
2019-05-21T01:31:20.592Z,1000.05
2019-05-21T01:32:20.581Z,999.98
2019-05-21T01:33:20.576Z,1000.03
2019-05-21T01:34:20.569Z,999.99
2019-05-21T01:35:20.560Z,1000.06
2019-05-21T01:36:20.562Z,999.98
2019-05-21T01:37:20.552Z,999.99
2019-05-21T01:38:20.572Z,1000.02
2019-05-21T01:39:20.546Z,1000.03
2019-05-21T01:40:20.532Z,1000.06
2019-05-21T01:41:20.526Z,1000.05
2019-05-21T01:42:20.527Z,999.98
2019-05-21T01:43:20.510Z,1000.02
2019-05-21T01:44:20.506Z,1000.01
2019-05-21T01:45:20.502Z,1000.05
2019-05-21T01:46:20.493Z,1000.10
2019-05-21T01:47:20.483Z,1000.11
2019-05-21T01:48:20.492Z,1000.10
2019-05-21T01:49:20.473Z,1000.12
2019-05-21T01:50:20.473Z,1000.06
2019-05-21T01:51:20.465Z,1000.10
2019-05-21T01:52:20.457Z,1000.12
2019-05-21T01:53:20.452Z,1000.08
2019-05-21T01:54:20.446Z,1000.10
2019-05-21T01:55:20.437Z,1000.18
2019-05-21T01:56:20.426Z,1000.21
2019-05-21T01:57:20.425Z,1000.18
2019-05-21T01:58:20.419Z,1000.19
2019-05-21T01:59:20.412Z,1000.19
2019-05-21T02:00:20.416Z,1000.26
2019-05-21T02:01:20.397Z,1000.24
2019-05-21T02:02:20.389Z,1000.20
2019-05-21T02:03:20.385Z,1000.22
2019-05-21T02:04:20.380Z,1000.26
2019-05-21T02:05:32.033Z,1000.26
2019-05-21T02:06:20.368Z,1000.23
2019-05-21T02:07:20.363Z,1000.30
2019-05-21T02:08:20.377Z,1000.29
2019-05-21T02:09:20.348Z,1000.32
2019-05-21T02:10:20.337Z,1000.32
2019-05-21T02:11:20.339Z,1000.32
2019-05-21T02:12:20.332Z,1000.34
2019-05-21T02:13:20.325Z,1000.34
2019-05-21T02:14:20.318Z,1000.36
2019-05-21T02:15:20.307Z,1000.38
2019-05-21T02:16:20.303Z,1000.33
2019-05-21T02:17:20.298Z,1000.40
2019-05-21T02:18:20.286Z,1000.45
2019-05-21T02:19:20.286Z,1000.44
2019-05-21T02:20:20.281Z,1000.44
2019-05-21T02:21:20.285Z,1000.43
2019-05-21T02:22:20.266Z,1000.45
2019-05-21T02:23:20.261Z,1000.44
2019-05-21T02:24:20.250Z,1000.47
2019-05-21T02:25:20.247Z,1000.50
2019-05-21T02:26:20.244Z,1000.46
2019-05-21T02:27:20.235Z,1000.45
2019-05-21T02:28:20.249Z,1000.48
2019-05-21T02:29:20.223Z,1000.48
2019-05-21T02:30:20.212Z,1000.47
2019-05-21T02:31:20.216Z,1000.47
2019-05-21T02:32:20.285Z,1000.43
2019-05-21T02:33:20.200Z,1000.46
2019-05-21T02:34:20.193Z,1000.49
2019-05-21T02:35:20.184Z,1000.53
2019-05-21T02:36:20.177Z,1000.49
2019-05-21T02:37:20.171Z,1000.51
2019-05-21T02:38:20.165Z,1000.50
2019-05-21T02:39:20.158Z,1000.52
2019-05-21T02:40:20.154Z,1000.47
2019-05-21T02:41:20.152Z,1000.47
2019-05-21T02:42:20.147Z,1000.53
2019-05-21T02:43:20.137Z,1000.60
2019-05-21T02:44:20.126Z,1000.53
2019-05-21T02:45:21.038Z,1000.56
2019-05-21T02:46:20.117Z,1000.51
2019-05-21T02:47:20.111Z,1000.46
2019-05-21T02:48:20.104Z,1000.58
2019-05-21T02:49:20.095Z,1000.52
2019-05-21T02:50:20.091Z,1000.56
2019-05-21T02:51:20.084Z,1000.54
2019-05-21T02:52:20.076Z,1000.57
2019-05-21T02:53:20.067Z,1000.55
2019-05-21T02:54:37.552Z,1000.59
2019-05-21T02:55:20.059Z,1000.53
2019-05-21T02:56:20.060Z,1000.58
2019-05-21T02:57:20.044Z,1000.61
2019-05-21T02:58:20.041Z,1000.59
2019-05-21T02:59:20.035Z,1000.59
2019-05-21T03:00:20.031Z,1000.57
2019-05-21T03:01:20.019Z,1000.58
2019-05-21T03:02:20.014Z,1000.55
2019-05-21T03:03:20.009Z,1000.58
2019-05-21T03:04:20.004Z,1000.56
2019-05-21T03:05:19.998Z,1000.58
2019-05-21T03:06:20.000Z,1000.58
2019-05-21T03:07:19.984Z,1000.58
2019-05-21T03:08:19.980Z,1000.53
2019-05-21T03:09:19.976Z,1000.56
2019-05-21T03:10:19.966Z,1000.59
2019-05-21T03:11:19.954Z,1000.57
2019-05-21T03:12:19.946Z,1000.51
2019-05-21T03:13:19.943Z,1000.53
2019-05-21T03:14:19.938Z,1000.54
2019-05-21T03:15:19.927Z,1000.49
2019-05-21T03:16:19.934Z,1000.55
2019-05-21T03:17:19.926Z,1000.56
2019-05-21T03:18:19.913Z,1000.56
2019-05-21T03:19:19.903Z,1000.61
2019-05-21T03:20:19.893Z,1000.58
2019-05-21T03:21:19.894Z,1000.63
2019-05-21T03:22:19.895Z,1000.67
2019-05-21T03:23:19.882Z,1000.67
2019-05-21T03:24:19.875Z,1000.66
2019-05-21T03:25:19.874Z,1000.78
2019-05-21T03:26:19.864Z,1000.78
2019-05-21T03:27:19.855Z,1000.77
2019-05-21T03:28:19.846Z,1000.85
2019-05-21T03:29:19.844Z,1000.85
2019-05-21T03:30:19.843Z,1000.86
2019-05-21T03:31:19.835Z,1000.86
2019-05-21T03:32:19.825Z,1000.88
2019-05-21T03:33:19.820Z,1000.87
2019-05-21T03:34:19.814Z,1000.88
2019-05-21T03:35:19.805Z,1000.85
2019-05-21T03:36:32.607Z,1000.78
2019-05-21T03:37:19.794Z,1000.84
2019-05-21T03:38:19.786Z,1000.85
2019-05-21T03:39:19.929Z,1000.85
2019-05-21T03:40:19.774Z,1000.83
2019-05-21T03:41:19.789Z,1000.85
2019-05-21T03:42:19.760Z,1000.81
2019-05-21T03:43:19.755Z,1000.78
2019-05-21T03:44:19.749Z,1000.83
2019-05-21T03:45:19.741Z,1000.83
2019-05-21T03:46:19.733Z,1000.89
2019-05-21T03:47:19.730Z,1000.86
2019-05-21T03:48:19.725Z,1000.83
2019-05-21T03:49:19.710Z,1000.84
2019-05-21T03:50:19.713Z,1000.84
2019-05-21T03:51:19.711Z,1000.84
2019-05-21T03:52:19.712Z,1000.84
2019-05-21T03:53:19.688Z,1000.87
2019-05-21T03:54:19.687Z,1000.85
2019-05-21T03:55:19.674Z,1000.89
2019-05-21T03:56:19.670Z,1000.83
2019-05-21T03:57:19.665Z,1000.84
2019-05-21T03:58:19.658Z,1000.84
2019-05-21T03:59:19.650Z,1000.87
2019-05-21T04:00:19.647Z,1000.89
2019-05-21T04:01:19.635Z,1000.83
2019-05-21T04:02:19.630Z,1000.85
2019-05-21T04:03:19.628Z,1000.85
2019-05-21T04:04:19.619Z,1000.74
2019-05-21T04:05:19.610Z,1000.81
2019-05-21T04:06:19.615Z,1000.77
2019-05-21T04:07:19.599Z,1000.79
2019-05-21T04:08:19.590Z,1000.75
2019-05-21T04:09:19.586Z,1000.76
2019-05-21T04:10:19.576Z,1000.74
2019-05-21T04:11:19.573Z,1000.73
2019-05-21T04:12:19.573Z,1000.72
2019-05-21T04:13:19.554Z,1000.75
2019-05-21T04:14:19.546Z,1000.80
2019-05-21T04:15:19.553Z,1000.83
2019-05-21T04:16:19.531Z,1000.83
2019-05-21T04:17:19.611Z,1000.88
2019-05-21T04:18:19.528Z,1000.91
2019-05-21T04:19:19.516Z,1000.93
2019-05-21T04:20:19.506Z,1000.91
2019-05-21T04:21:19.510Z,1000.96
2019-05-21T04:22:19.499Z,1000.94
2019-05-21T04:23:19.497Z,1000.97
2019-05-21T04:24:19.483Z,1000.95
2019-05-21T04:25:19.474Z,1000.88
2019-05-21T04:26:19.475Z,1000.98
2019-05-21T04:27:19.467Z,1000.91
2019-05-21T04:28:19.457Z,1000.86
2019-05-21T04:29:19.461Z,1000.88
2019-05-21T04:30:19.446Z,1000.88
2019-05-21T04:31:19.444Z,1000.83
2019-05-21T04:32:19.427Z,1000.91
2019-05-21T04:33:19.424Z,1000.89
2019-05-21T04:34:19.419Z,1000.83
2019-05-21T04:35:19.412Z,1000.86
2019-05-21T04:36:19.407Z,1000.81
2019-05-21T04:37:19.395Z,1000.97
2019-05-21T04:38:19.392Z,1000.94
2019-05-21T04:39:19.413Z,1000.94
2019-05-21T04:40:19.376Z,1000.99
2019-05-21T04:41:19.368Z,1001.00
2019-05-21T04:42:19.364Z,1001.04
2019-05-21T04:43:19.355Z,1001.00
2019-05-21T04:44:19.347Z,1001.06
2019-05-21T04:45:19.357Z,1001.07
2019-05-21T04:46:19.353Z,1001.04
2019-05-21T04:47:19.333Z,1001.13
2019-05-21T04:48:19.329Z,1001.11
2019-05-21T04:49:19.320Z,1001.14
2019-05-21T04:50:19.311Z,1001.16
2019-05-21T04:51:19.298Z,1001.16
2019-05-21T04:52:19.288Z,1001.16
2019-05-21T04:53:19.290Z,1001.17
2019-05-21T04:54:19.286Z,1001.17
2019-05-21T04:55:19.279Z,1001.14
2019-05-21T04:56:19.270Z,1001.08
2019-05-21T04:57:19.264Z,1001.07
2019-05-21T04:58:19.260Z,1001.14
2019-05-21T04:59:19.265Z,1001.15
2019-05-21T05:00:19.241Z,1001.19
2019-05-21T05:01:19.238Z,1001.10
2019-05-21T05:02:19.230Z,1001.08
2019-05-21T05:03:19.222Z,1001.14
2019-05-21T05:04:21.678Z,1001.11
2019-05-21T05:05:19.207Z,1001.08
2019-05-21T05:06:19.208Z,1001.05
2019-05-21T05:07:28.026Z,1001.13
2019-05-21T05:08:19.189Z,1001.09
2019-05-21T05:09:19.180Z,1001.08
2019-05-21T05:10:19.174Z,1001.06
2019-05-21T05:11:19.171Z,1001.06
2019-05-21T05:12:19.160Z,1001.03
2019-05-21T05:13:19.151Z,1001.11
2019-05-21T05:14:19.148Z,1001.07
2019-05-21T05:15:19.142Z,1001.10
2019-05-21T05:16:19.135Z,1001.07
2019-05-21T05:17:19.124Z,1001.07
2019-05-21T05:18:19.122Z,1001.15
2019-05-21T05:19:19.114Z,1001.09
2019-05-21T05:20:19.107Z,1001.06
2019-05-21T05:21:19.098Z,1001.07
2019-05-21T05:22:19.100Z,1001.10
2019-05-21T05:23:19.100Z,1001.19
2019-05-21T05:24:19.084Z,1001.13
2019-05-21T05:25:19.078Z,1001.17
2019-05-21T05:26:19.068Z,1001.15
2019-05-21T05:27:19.064Z,1001.20
2019-05-21T05:28:19.052Z,1001.22
2019-05-21T05:29:19.046Z,1001.32
2019-05-21T05:30:19.042Z,1001.33
2019-05-21T05:31:19.034Z,1001.30
2019-05-21T05:32:19.025Z,1001.33
2019-05-21T05:33:19.017Z,1001.36
2019-05-21T05:34:19.006Z,1001.39
2019-05-21T05:35:19.005Z,1001.38
2019-05-21T05:36:19.000Z,1001.40
2019-05-21T05:37:18.993Z,1001.43
2019-05-21T05:38:18.987Z,1001.40
2019-05-21T05:39:18.977Z,1001.47
2019-05-21T05:40:18.970Z,1001.49
2019-05-21T05:41:18.966Z,1001.48
2019-05-21T05:42:18.960Z,1001.53
2019-05-21T05:43:20.702Z,1001.57
2019-05-21T05:44:18.944Z,1001.54
2019-05-21T05:45:18.972Z,1001.60
2019-05-21T05:46:18.960Z,1001.53
2019-05-21T05:47:18.920Z,1001.62
2019-05-21T05:48:18.919Z,1001.58
2019-05-21T05:49:18.912Z,1001.59
2019-05-21T05:50:18.930Z,1001.59
2019-05-21T05:51:18.895Z,1001.58
2019-05-21T05:52:18.893Z,1001.57
2019-05-21T05:53:18.884Z,1001.59
2019-05-21T05:54:18.873Z,1001.62
2019-05-21T05:55:18.865Z,1001.62
2019-05-21T05:56:18.864Z,1001.59
2019-05-21T05:57:18.857Z,1001.60
2019-05-21T05:58:18.855Z,1001.68
2019-05-21T05:59:18.842Z,1001.65
2019-05-21T06:00:18.836Z,1001.66
2019-05-21T06:01:18.855Z,1001.67
2019-05-21T06:02:18.828Z,1001.68
2019-05-21T06:03:18.820Z,1001.63
2019-05-21T06:04:18.848Z,1001.71
2019-05-21T06:05:18.800Z,1001.68
2019-05-21T06:06:18.803Z,1001.70
2019-05-21T06:07:18.839Z,1001.65
2019-05-21T06:08:18.784Z,1001.69
2019-05-21T06:09:18.780Z,1001.68
2019-05-21T06:10:18.774Z,1001.76
2019-05-21T06:11:18.764Z,1001.68
2019-05-21T06:12:18.766Z,1001.65
2019-05-21T06:13:18.753Z,1001.71
2019-05-21T06:14:18.745Z,1001.71
2019-05-21T06:15:18.735Z,1001.66
2019-05-21T06:16:18.723Z,1001.64
2019-05-21T06:17:18.724Z,1001.66
2019-05-21T06:18:18.715Z,1001.67
2019-05-21T06:19:18.712Z,1001.64
2019-05-21T06:20:18.707Z,1001.62
2019-05-21T06:21:18.694Z,1001.64
2019-05-21T06:22:18.699Z,1001.66
2019-05-21T06:23:18.685Z,1001.67
2019-05-21T06:24:18.680Z,1001.66
2019-05-21T06:25:18.739Z,1001.66
2019-05-21T06:26:18.666Z,1001.72
2019-05-21T06:27:18.660Z,1001.64
2019-05-21T06:28:18.647Z,1001.70
2019-05-21T06:29:18.713Z,1001.74
2019-05-21T06:30:18.641Z,1001.75
2019-05-21T06:31:18.638Z,1001.75
2019-05-21T06:32:18.651Z,1001.79
2019-05-21T06:33:18.620Z,1001.78
2019-05-21T06:34:18.613Z,1001.82
2019-05-21T06:35:20.136Z,1001.82
2019-05-21T06:36:18.609Z,1001.83
2019-05-21T06:37:18.619Z,1001.75
2019-05-21T06:38:18.646Z,1001.78
2019-05-21T06:39:18.581Z,1001.81
2019-05-21T06:40:18.574Z,1001.77
2019-05-21T06:41:18.567Z,1001.79
2019-05-21T06:42:18.559Z,1001.72
2019-05-21T06:43:18.553Z,1001.77
2019-05-21T06:44:18.550Z,1001.79
2019-05-21T06:45:18.541Z,1001.73
2019-05-21T06:46:18.537Z,1001.79
2019-05-21T06:47:18.528Z,1001.76
2019-05-21T06:48:18.523Z,1001.83
2019-05-21T06:49:18.523Z,1001.86
2019-05-21T06:50:18.575Z,1001.83
2019-05-21T06:51:18.506Z,1001.88
2019-05-21T06:52:18.499Z,1001.87
2019-05-21T06:53:18.492Z,1001.86
2019-05-21T06:54:18.489Z,1001.80
2019-05-21T06:55:18.535Z,1001.91
2019-05-21T06:56:18.469Z,1001.87
2019-05-21T06:57:18.464Z,1001.94
2019-05-21T06:58:18.538Z,1001.95
2019-05-21T06:59:18.455Z,1001.96
2019-05-21T07:00:18.447Z,1001.94
2019-05-21T07:01:18.441Z,1001.92
2019-05-21T07:02:18.441Z,1001.97
2019-05-21T07:03:18.436Z,1002.01
2019-05-21T07:04:18.422Z,1001.96
2019-05-21T07:05:18.421Z,1001.89
2019-05-21T07:06:18.411Z,1001.92
2019-05-21T07:07:18.759Z,1001.95
2019-05-21T07:08:33.582Z,1001.96
2019-05-21T07:09:18.391Z,1001.99
2019-05-21T07:10:18.386Z,1001.97
2019-05-21T07:11:18.387Z,1002.00
2019-05-21T07:12:18.374Z,1002.01
2019-05-21T07:13:18.371Z,1002.04
2019-05-21T07:14:18.381Z,1001.97
2019-05-21T07:15:18.356Z,1002.01
2019-05-21T07:16:18.345Z,1002.03
2019-05-21T07:17:18.342Z,1002.05
2019-05-21T07:18:18.339Z,1002.08
2019-05-21T07:19:18.333Z,1002.02
2019-05-21T07:20:18.323Z,1002.07
2019-05-21T07:21:18.317Z,1002.04
2019-05-21T07:22:18.314Z,1002.04
2019-05-21T07:23:18.307Z,1002.06
2019-05-21T07:24:18.296Z,1002.04
2019-05-21T07:25:18.294Z,1002.05
2019-05-21T07:26:18.331Z,1002.07
2019-05-21T07:27:18.324Z,1002.04
2019-05-21T07:28:18.287Z,1002.14
2019-05-21T07:29:18.266Z,1002.12
2019-05-21T07:30:18.264Z,1002.18
2019-05-21T07:31:18.257Z,1002.32
2019-05-21T07:32:18.251Z,1002.19
2019-05-21T07:33:18.243Z,1002.29
2019-05-21T07:34:18.248Z,1002.25
2019-05-21T07:35:18.235Z,1002.28
2019-05-21T07:36:18.232Z,1002.26
2019-05-21T07:37:18.234Z,1002.23
2019-05-21T07:38:18.209Z,1002.29
2019-05-21T07:39:18.204Z,1002.24
2019-05-21T07:40:18.204Z,1002.27
2019-05-21T07:41:20.363Z,1002.24
2019-05-21T07:42:18.208Z,1002.25
2019-05-21T07:43:18.184Z,1002.32
2019-05-21T07:44:18.176Z,1002.20
2019-05-21T07:45:18.171Z,1002.23
2019-05-21T07:46:18.164Z,1002.27
2019-05-21T07:47:18.158Z,1002.29
2019-05-21T07:48:18.171Z,1002.28
2019-05-21T07:49:18.145Z,1002.30
2019-05-21T07:50:18.140Z,1002.36
2019-05-21T07:51:18.128Z,1002.53
2019-05-21T07:52:18.127Z,1002.52
2019-05-21T07:53:18.124Z,1002.52
2019-05-21T07:54:18.182Z,1002.55
2019-05-21T07:55:18.109Z,1002.56
2019-05-21T07:56:18.109Z,1002.58
2019-05-21T07:57:18.097Z,1002.65
2019-05-21T07:58:18.109Z,1002.67
2019-05-21T07:59:18.080Z,1002.67
2019-05-21T08:00:18.078Z,1002.71
2019-05-21T08:01:18.076Z,1002.69
2019-05-21T08:02:18.067Z,1002.71
2019-05-21T08:03:18.060Z,1002.79
2019-05-21T08:04:18.056Z,1002.73
2019-05-21T08:05:18.045Z,1002.78
2019-05-21T08:06:18.044Z,1002.81
2019-05-21T08:07:18.034Z,1002.76
2019-05-21T08:08:18.031Z,1002.79
2019-05-21T08:09:18.037Z,1002.80
2019-05-21T08:10:18.019Z,1002.81
2019-05-21T08:11:18.012Z,1002.78
2019-05-21T08:12:37.137Z,1002.74
2019-05-21T08:13:17.992Z,1002.75
2019-05-21T08:14:17.995Z,1002.75
2019-05-21T08:15:17.992Z,1002.72
2019-05-21T08:16:17.983Z,1002.70
2019-05-21T08:17:17.976Z,1002.69
2019-05-21T08:18:17.969Z,1002.74
2019-05-21T08:19:17.957Z,1002.66
2019-05-21T08:20:17.954Z,1002.76
2019-05-21T08:21:17.956Z,1002.76
2019-05-21T08:22:17.941Z,1002.68
2019-05-21T08:23:17.931Z,1002.70
2019-05-21T08:24:17.926Z,1002.73
2019-05-21T08:25:17.919Z,1002.65
2019-05-21T08:26:17.919Z,1002.60
2019-05-21T08:27:17.905Z,1002.62
2019-05-21T08:28:17.907Z,1002.64
2019-05-21T08:29:17.897Z,1002.62
2019-05-21T08:30:17.894Z,1002.67
2019-05-21T08:31:17.884Z,1002.63
2019-05-21T08:32:17.881Z,1002.68
2019-05-21T08:33:17.867Z,1002.63
2019-05-21T08:34:18.040Z,1002.62
2019-05-21T08:35:17.857Z,1002.73
2019-05-21T08:36:17.865Z,1002.74
2019-05-21T08:37:17.849Z,1002.72
2019-05-21T08:38:17.843Z,1002.77
2019-05-21T08:39:28.411Z,1002.78
2019-05-21T08:40:17.833Z,1002.73
2019-05-21T08:41:17.815Z,1002.76
2019-05-21T08:42:17.817Z,1002.78
2019-05-21T08:43:17.813Z,1002.79
2019-05-21T08:44:17.802Z,1002.81
2019-05-21T08:45:17.800Z,1002.77
2019-05-21T08:46:17.792Z,1002.85
2019-05-21T08:47:17.778Z,1002.84
2019-05-21T08:48:17.780Z,1002.90
2019-05-21T08:49:17.775Z,1002.91
2019-05-21T08:50:17.772Z,1002.93
2019-05-21T08:51:17.759Z,1002.89
2019-05-21T08:52:17.761Z,1002.93
2019-05-21T08:53:17.751Z,1002.90
2019-05-21T08:54:17.745Z,1002.90
2019-05-21T08:55:17.765Z,1002.84
2019-05-21T08:56:17.734Z,1002.92
2019-05-21T08:57:17.724Z,1002.79
2019-05-21T08:58:17.728Z,1002.89
2019-05-21T08:59:17.712Z,1002.93
2019-05-21T09:00:17.711Z,1002.93
2019-05-21T09:01:17.697Z,1002.99
2019-05-21T09:02:17.685Z,1002.92
2019-05-21T09:03:17.686Z,1002.95
2019-05-21T09:04:17.698Z,1002.98
2019-05-21T09:05:17.674Z,1003.00
2019-05-21T09:06:17.668Z,1003.00
2019-05-21T09:07:17.666Z,1002.95
2019-05-21T09:08:17.655Z,1003.01
2019-05-21T09:09:17.649Z,1003.11
2019-05-21T09:10:17.642Z,1003.12
2019-05-21T09:11:17.639Z,1003.03
2019-05-21T09:12:17.628Z,1003.13
2019-05-21T09:13:18.247Z,1003.16
2019-05-21T09:14:17.620Z,1003.17
2019-05-21T09:15:17.612Z,1003.17
2019-05-21T09:16:17.601Z,1003.17
2019-05-21T09:17:17.602Z,1003.16
2019-05-21T09:18:17.593Z,1003.15
2019-05-21T09:19:17.590Z,1003.14
2019-05-21T09:20:17.584Z,1003.18
2019-05-21T09:21:17.571Z,1003.27
2019-05-21T09:22:17.565Z,1003.19
2019-05-21T09:23:17.585Z,1003.20
2019-05-21T09:24:17.562Z,1003.18
2019-05-21T09:25:17.551Z,1003.21
2019-05-21T09:26:17.542Z,1003.26
2019-05-21T09:27:17.539Z,1003.19
2019-05-21T09:28:17.608Z,1003.18
2019-05-21T09:29:17.523Z,1003.29
2019-05-21T09:30:17.528Z,1003.33
2019-05-21T09:31:17.512Z,1003.22
2019-05-21T09:32:17.509Z,1003.34
2019-05-21T09:33:17.524Z,1003.38
2019-05-21T09:34:17.492Z,1003.37
2019-05-21T09:35:17.494Z,1003.42
2019-05-21T09:36:17.482Z,1003.42
2019-05-21T09:37:19.973Z,1003.43
2019-05-21T09:38:17.466Z,1003.34
2019-05-21T09:39:17.464Z,1003.42
2019-05-21T09:40:17.455Z,1003.37
2019-05-21T09:41:17.459Z,1003.41
2019-05-21T09:42:17.443Z,1003.43
2019-05-21T09:43:17.440Z,1003.35
2019-05-21T09:44:17.434Z,1003.35
2019-05-21T09:45:17.421Z,1003.34
2019-05-21T09:46:17.424Z,1003.38
2019-05-21T09:47:17.413Z,1003.36
2019-05-21T09:48:17.408Z,1003.40
2019-05-21T09:49:17.417Z,1003.43
2019-05-21T09:50:17.394Z,1003.38
2019-05-21T09:51:20.096Z,1003.41
2019-05-21T09:52:17.380Z,1003.46
2019-05-21T09:53:17.375Z,1003.48
2019-05-21T09:54:17.369Z,1003.47
2019-05-21T09:55:17.365Z,1003.52
2019-05-21T09:56:17.363Z,1003.49
2019-05-21T09:57:17.351Z,1003.47
2019-05-21T09:58:17.344Z,1003.37
2019-05-21T09:59:17.353Z,1003.41
2019-05-21T10:00:17.332Z,1003.46
2019-05-21T10:01:17.323Z,1003.41
2019-05-21T10:02:17.323Z,1003.41
2019-05-21T10:03:17.316Z,1003.40
2019-05-21T10:04:17.306Z,1003.42
2019-05-21T10:05:17.300Z,1003.43
2019-05-21T10:06:17.299Z,1003.47
2019-05-21T10:07:17.287Z,1003.51
2019-05-21T10:08:17.285Z,1003.50
2019-05-21T10:09:17.277Z,1003.50
2019-05-21T10:10:17.278Z,1003.51
2019-05-21T10:11:17.267Z,1003.50
2019-05-21T10:12:17.256Z,1003.55
2019-05-21T10:13:17.251Z,1003.56
2019-05-21T10:14:17.254Z,1003.54
2019-05-21T10:15:17.238Z,1003.56
2019-05-21T10:16:17.234Z,1003.62
2019-05-21T10:17:17.233Z,1003.57
2019-05-21T10:18:17.223Z,1003.60
2019-05-21T10:19:17.218Z,1003.61
2019-05-21T10:20:17.209Z,1003.61
2019-05-21T10:21:17.208Z,1003.64
2019-05-21T10:22:17.203Z,1003.72
2019-05-21T10:23:17.192Z,1003.75
2019-05-21T10:24:17.192Z,1003.73
2019-05-21T10:25:17.180Z,1003.75
2019-05-21T10:26:17.171Z,1003.80
2019-05-21T10:27:17.183Z,1003.82
2019-05-21T10:28:17.166Z,1003.84
2019-05-21T10:29:17.160Z,1003.84
2019-05-21T10:30:17.158Z,1003.84
2019-05-21T10:31:17.145Z,1003.92
2019-05-21T10:32:17.137Z,1003.94
2019-05-21T10:33:17.134Z,1003.97
2019-05-21T10:34:17.127Z,1004.00
2019-05-21T10:35:17.124Z,1004.00
2019-05-21T10:36:17.123Z,1004.02
2019-05-21T10:37:17.108Z,1004.03
2019-05-21T10:38:17.102Z,1003.97
2019-05-21T10:39:17.094Z,1004.01
2019-05-21T10:40:17.091Z,1003.97
2019-05-21T10:41:17.085Z,1004.03
2019-05-21T10:42:17.079Z,1004.00
2019-05-21T10:43:17.075Z,1004.01
2019-05-21T10:44:17.066Z,1004.01
2019-05-21T10:45:17.063Z,1004.03
2019-05-21T10:46:17.055Z,1004.07
2019-05-21T10:47:17.054Z,1004.07
2019-05-21T10:48:17.057Z,1004.06
2019-05-21T10:49:17.037Z,1004.09
2019-05-21T10:50:17.032Z,1004.13
2019-05-21T10:51:17.023Z,1004.11
2019-05-21T10:52:17.021Z,1004.16
2019-05-21T10:53:17.017Z,1004.17
2019-05-21T10:54:17.003Z,1004.16
2019-05-21T10:55:17.730Z,1004.18
2019-05-21T10:56:17.000Z,1004.14
2019-05-21T10:57:16.989Z,1004.24
2019-05-21T10:58:16.984Z,1004.18
2019-05-21T10:59:16.977Z,1004.22
2019-05-21T11:00:16.971Z,1004.25
2019-05-21T11:01:17.009Z,1004.27
2019-05-21T11:02:16.962Z,1004.27
2019-05-21T11:03:16.964Z,1004.29
2019-05-21T11:04:16.949Z,1004.31
2019-05-21T11:05:16.944Z,1004.30
2019-05-21T11:06:16.938Z,1004.27
2019-05-21T11:07:16.929Z,1004.24
2019-05-21T11:08:25.293Z,1004.33
2019-05-21T11:09:16.919Z,1004.32
2019-05-21T11:10:16.909Z,1004.30
2019-05-21T11:11:21.095Z,1004.34
2019-05-21T11:12:16.898Z,1004.38
2019-05-21T11:13:16.897Z,1004.30
2019-05-21T11:14:16.893Z,1004.37
2019-05-21T11:15:16.884Z,1004.35
2019-05-21T11:16:16.870Z,1004.42
2019-05-21T11:17:16.870Z,1004.34
2019-05-21T11:18:16.867Z,1004.41
2019-05-21T11:19:16.860Z,1004.38
2019-05-21T11:20:16.855Z,1004.41
2019-05-21T11:21:16.854Z,1004.40
2019-05-21T11:22:16.838Z,1004.44
2019-05-21T11:23:16.832Z,1004.43
2019-05-21T11:24:16.906Z,1004.45
2019-05-21T11:25:16.826Z,1004.49
2019-05-21T11:26:16.820Z,1004.52
2019-05-21T11:27:16.810Z,1004.51
2019-05-21T11:28:16.805Z,1004.52
2019-05-21T11:29:16.797Z,1004.55
2019-05-21T11:30:16.791Z,1004.55
2019-05-21T11:31:16.792Z,1004.61
2019-05-21T11:32:16.786Z,1004.57
2019-05-21T11:33:16.778Z,1004.56
2019-05-21T11:34:16.772Z,1004.64
2019-05-21T11:35:16.768Z,1004.69
2019-05-21T11:36:16.761Z,1004.59
2019-05-21T11:37:16.758Z,1004.64
2019-05-21T11:38:16.756Z,1004.67
2019-05-21T11:39:16.750Z,1004.67
2019-05-21T11:40:16.743Z,1004.66
2019-05-21T11:41:16.839Z,1004.70
2019-05-21T11:42:16.732Z,1004.68
2019-05-21T11:43:16.722Z,1004.74
2019-05-21T11:44:16.714Z,1004.80
2019-05-21T11:45:30.946Z,1004.78
2019-05-21T11:46:17.228Z,1004.75
2019-05-21T11:47:16.704Z,1004.81
2019-05-21T11:48:16.699Z,1004.80
2019-05-21T11:49:16.695Z,1004.82
2019-05-21T11:50:16.682Z,1004.80
2019-05-21T11:51:16.717Z,1004.76
2019-05-21T11:52:16.674Z,1004.76
2019-05-21T11:53:16.668Z,1004.83
2019-05-21T11:54:16.668Z,1004.81
2019-05-21T11:55:16.664Z,1004.78
2019-05-21T11:56:16.654Z,1004.80
2019-05-21T11:57:16.649Z,1004.73
2019-05-21T11:58:16.641Z,1004.82
2019-05-21T11:59:16.651Z,1004.77
2019-05-21T12:00:16.644Z,1004.82
2019-05-21T12:01:17.258Z,1004.84
2019-05-21T12:02:16.617Z,1004.83
2019-05-21T12:03:16.612Z,1004.85
2019-05-21T12:04:16.605Z,1004.87
2019-05-21T12:05:16.603Z,1004.89